Weather History for KLYV - October, 2013

Change the Weather History Date:

Friday, October 11, 2013

  Actual Average (KFSD) Record (KFSD)
Temperature  
Mean Temperature 62 °F 50 °F  
Max Temperature 75 °F 62 °F 90 °F (1910)
Min Temperature 48 °F 38 °F 20 °F (1987)
Degree Days  
Heating Degree Days 2 15  
Month to date heating degree days 145  
Since 1 July heating degree days 349  
Cooling Degree Days 0 0  
Month to date cooling degree days 0  
Year to date cooling degree days 685  
Growing Degree Days 12 (Base 50)    
Moisture  
Dew Point 49 °F    
Average Humidity 63    
Maximum Humidity 82    
Minimum Humidity 29    
Precipitation  
Precipitation 0.00 in 0.08 in 1.25 in (1947)
Month to date precipitation 0.93  
Year to date precipitation 23.09  
Snow  
Snow 0.00 in 0.00 in 1.10 in (2009)
Month to date snowfall 0.2  
Since 1 July snowfall 0.2  
Since 1 September snowfall 0.2  
Snow Depth -    
Sea Level Pressure  
Sea Level Pressure 29.66 in    
Wind  
Wind Speed 15 mph (South)    
Max Wind Speed 25 mph    
Max Gust Speed 39 mph    
Visibility 10 miles    
Events Rain    
T = Trace of Precipitation, MM = Missing Value Source: NWS Daily Summary

Daily Weather History Graph

Daily Weather History Graph

Search for Another Location

Airport or City:

Trip Planner

Search our weather history database for the weather conditions in past years. The results will help you decide how hot, cold, wet, or windy it might be!

Date:

Astronomy

Oct. 11, 2013 Rise Set
Actual Time 7:34 AM CDT 6:47 PM CDT
Civil Twilight 7:05 AM CDT 7:16 PM CDT
Nautical Twilight 6:32 AM CDT 7:49 PM CDT
Astronomical Twilight 5:59 AM CDT 8:22 PM CDT
Moon 2:23 PM CDT (10/11) No Moon Set
Length of Visible Light 12h 10m
Length of Day
11h 13m
Waxing Crescent, 47% of the Moon is Illuminated
Oct 11
Waxing Crescent
Oct 11
First Quarter
Oct 18
Full
Oct 26
Last Quarter
Nov 3
New

Hourly Weather History & Observations

Time (CDT) Temp. Dew Point Humidity Pressure Visibility Wind Dir Wind Speed Gust Speed Precip Events Conditions
12:12 AM 64.4 °F 50.0 °F 59% 29.77 in 10.0 mi SSE 11.5 mph 18.4 mph N/A   Clear
12:33 AM 64.4 °F 50.0 °F 59% 29.77 in 10.0 mi SSE 12.7 mph 17.3 mph N/A   Clear
12:53 AM 62.6 °F 50.0 °F 63% 29.77 in 10.0 mi SSE 11.5 mph - N/A   Clear
1:13 AM 62.6 °F 50.0 °F 63% 29.77 in 10.0 mi SSE 12.7 mph - N/A   Clear
1:33 AM 62.6 °F 51.8 °F 68% 29.76 in 10.0 mi SSE 11.5 mph 18.4 mph N/A   Clear
1:52 AM 62.6 °F 51.8 °F 68% 29.76 in 10.0 mi SSE 10.4 mph 18.4 mph N/A   Clear
2:13 AM 62.6 °F 50.0 °F 63% 29.76 in 10.0 mi SSE 10.4 mph 16.1 mph N/A   Clear
2:33 AM 62.6 °F 50.0 °F 63% 29.78 in 10.0 mi South 10.4 mph - N/A   Clear
2:53 AM 60.8 °F 50.0 °F 68% 29.77 in 10.0 mi SSE 11.5 mph - N/A   Clear
3:13 AM 60.8 °F 50.0 °F 68% 29.76 in 10.0 mi SSE 11.5 mph 16.1 mph N/A   Clear
3:32 AM 60.8 °F 50.0 °F 68% 29.75 in 10.0 mi SSE 8.1 mph - N/A   Clear
3:53 AM 60.8 °F 50.0 °F 68% 29.74 in 10.0 mi SSE 12.7 mph 16.1 mph N/A   Clear
4:13 AM 60.8 °F 50.0 °F 68% 29.73 in 10.0 mi SSE 10.4 mph 16.1 mph N/A   Clear
4:33 AM 60.8 °F 51.8 °F 72% 29.72 in 10.0 mi SSE 11.5 mph - N/A   Clear
4:53 AM 60.8 °F 51.8 °F 72% 29.71 in 10.0 mi SSE 10.4 mph 16.1 mph N/A   Clear
5:13 AM 60.8 °F 51.8 °F 72% 29.70 in 10.0 mi SSE 12.7 mph 20.7 mph N/A   Clear
5:33 AM 60.8 °F 51.8 °F 72% 29.70 in 10.0 mi SSE 11.5 mph 20.7 mph N/A   Clear
5:53 AM 60.8 °F 51.8 °F 72% 29.68 in 10.0 mi SSE 12.7 mph 19.6 mph N/A   Clear
6:13 AM 60.8 °F 51.8 °F 72% 29.67 in 10.0 mi SSE 15.0 mph 24.2 mph N/A   Clear
6:33 AM 60.8 °F 51.8 °F 72% 29.66 in 10.0 mi SSE 15.0 mph 23.0 mph N/A   Clear
6:53 AM 60.8 °F 51.8 °F 72% 29.65 in 10.0 mi SSE 18.4 mph 24.2 mph N/A   Clear
7:13 AM 60.8 °F 51.8 °F 72% 29.66 in 10.0 mi SSE 16.1 mph 24.2 mph N/A   Clear
7:33 AM 60.8 °F 51.8 °F 72% 29.65 in 10.0 mi SSE 16.1 mph 23.0 mph N/A   Clear
7:52 AM 60.8 °F 51.8 °F 72% 29.64 in 10.0 mi SE 17.3 mph 23.0 mph N/A   Scattered Clouds
8:13 AM 59.0 °F 51.8 °F 77% 29.64 in 10.0 mi SSE 15.0 mph 21.9 mph N/A   Scattered Clouds
8:33 AM 60.8 °F 51.8 °F 72% 29.62 in 10.0 mi SE 16.1 mph 24.2 mph N/A   Mostly Cloudy
8:53 AM 59.0 °F 51.8 °F 77% 29.62 in 10.0 mi SE 18.4 mph 26.5 mph N/A Rain Rain
9:13 AM 59.0 °F 53.6 °F 82% 29.65 in 10.0 mi SSE 17.3 mph 23.0 mph N/A   Light Drizzle
9:32 AM 59.0 °F 53.6 °F 82% 29.65 in 10.0 mi SSE 12.7 mph 25.3 mph N/A   Mostly Cloudy
9:53 AM 59.0 °F 51.8 °F 77% 29.64 in 10.0 mi SSE 16.1 mph 25.3 mph N/A   Overcast
10:13 AM 59.0 °F 53.6 °F 82% 29.63 in 10.0 mi SSE 13.8 mph 20.7 mph N/A   Overcast
10:33 AM 60.8 °F 53.6 °F 77% 29.63 in 10.0 mi SSE 13.8 mph 19.6 mph N/A   Mostly Cloudy
10:53 AM 60.8 °F 53.6 °F 77% 29.62 in 10.0 mi SSE 16.1 mph 20.7 mph N/A   Mostly Cloudy
11:13 AM 60.8 °F 53.6 °F 77% 29.61 in 10.0 mi SSE 15.0 mph 23.0 mph N/A   Overcast
11:33 AM 62.6 °F 55.4 °F 77% 29.59 in 10.0 mi SSE 16.1 mph 23.0 mph N/A   Overcast
11:53 AM 62.6 °F 55.4 °F 77% 29.59 in 10.0 mi SSE 23.0 mph 27.6 mph N/A   Overcast
12:13 PM 64.4 °F 55.4 °F 73% 29.58 in 10.0 mi SSE 20.7 mph 27.6 mph N/A   Overcast
12:33 PM 66.2 °F 55.4 °F 68% 29.56 in 10.0 mi South 20.7 mph 28.8 mph N/A   Mostly Cloudy
12:53 PM 68.0 °F 55.4 °F 64% 29.55 in 10.0 mi South 25.3 mph 34.5 mph N/A   Mostly Cloudy
1:12 PM 69.8 °F 53.6 °F 56% 29.54 in 10.0 mi South 21.9 mph 35.7 mph N/A   Mostly Cloudy
1:33 PM 69.8 °F 53.6 °F 56% 29.53 in 10.0 mi South 25.3 mph 39.1 mph N/A   Mostly Cloudy
1:53 PM 71.6 °F 53.6 °F 53% 29.53 in 10.0 mi South 23.0 mph 32.2 mph N/A   Mostly Cloudy
2:13 PM 71.6 °F 51.8 °F 50% 29.53 in 10.0 mi South 20.7 mph 34.5 mph N/A   Mostly Cloudy
2:32 PM 73.4 °F 51.8 °F 47% 29.52 in 10.0 mi South 24.2 mph 34.5 mph N/A   Scattered Clouds
2:53 PM 75.2 °F 51.8 °F 44% 29.52 in 10.0 mi South 21.9 mph 36.8 mph N/A   Scattered Clouds
3:13 PM 75.2 °F 51.8 °F 44% 29.52 in 10.0 mi South 25.3 mph 35.7 mph N/A   Scattered Clouds
3:32 PM 75.2 °F 50.0 °F 41% 29.52 in 10.0 mi South 18.4 mph 36.8 mph N/A   Scattered Clouds
3:53 PM 73.4 °F 50.0 °F 44% 29.52 in 10.0 mi South 24.2 mph 34.5 mph N/A   Mostly Cloudy
4:13 PM 73.4 °F 51.8 °F 47% 29.52 in 10.0 mi South 24.2 mph 34.5 mph N/A   Overcast
4:32 PM 73.4 °F 51.8 °F 47% 29.53 in 10.0 mi South 18.4 mph 27.6 mph N/A   Overcast
4:53 PM 75.2 °F 41.0 °F 29% 29.54 in 10.0 mi SW 23.0 mph 35.7 mph N/A   Mostly Cloudy
5:13 PM 71.6 °F 41.0 °F 33% 29.56 in 10.0 mi SW 25.3 mph 36.8 mph N/A   Scattered Clouds
5:32 PM 71.6 °F 42.8 °F 35% 29.58 in 10.0 mi SW 25.3 mph 33.4 mph N/A   Clear
5:53 PM 69.8 °F 42.8 °F 38% 29.59 in 10.0 mi SW 25.3 mph 33.4 mph N/A   Clear
6:12 PM 68.0 °F 44.6 °F 43% 29.61 in 10.0 mi SW 19.6 mph 26.5 mph N/A   Clear
6:33 PM 68.0 °F 46.4 °F 46% 29.63 in 10.0 mi WSW 20.7 mph 26.5 mph N/A   Clear
6:53 PM 64.4 °F 46.4 °F 52% 29.64 in 10.0 mi WSW 24.2 mph 29.9 mph N/A   Scattered Clouds
7:12 PM 62.6 °F 44.6 °F 52% 29.67 in 10.0 mi WSW 25.3 mph 35.7 mph N/A   Scattered Clouds
7:33 PM 60.8 °F 44.6 °F 55% 29.69 in 10.0 mi WSW 24.2 mph 31.1 mph N/A   Clear
7:53 PM 57.2 °F 42.8 °F 59% 29.71 in 10.0 mi West 23.0 mph 32.2 mph N/A   Clear
8:12 PM 55.4 °F 42.8 °F 63% 29.72 in 10.0 mi West 19.6 mph 29.9 mph N/A   Clear
8:33 PM 53.6 °F 42.8 °F 67% 29.72 in 10.0 mi West 15.0 mph 25.3 mph N/A   Scattered Clouds
8:53 PM 55.4 °F 42.8 °F 63% 29.73 in 10.0 mi West 17.3 mph 25.3 mph N/A   Mostly Cloudy
9:12 PM 55.4 °F 42.8 °F 63% 29.74 in 10.0 mi WSW 15.0 mph 25.3 mph N/A   Overcast
9:33 PM 53.6 °F 42.8 °F 67% 29.75 in 10.0 mi West 17.3 mph 24.2 mph N/A   Overcast
9:53 PM 53.6 °F 41.0 °F 62% 29.76 in 10.0 mi West 18.4 mph 24.2 mph N/A   Mostly Cloudy
10:12 PM 51.8 °F 41.0 °F 67% 29.76 in 10.0 mi West 13.8 mph - N/A   Clear
10:33 PM 51.8 °F 41.0 °F 67% 29.77 in 10.0 mi WSW 10.4 mph 19.6 mph N/A   Clear
10:53 PM 50.0 °F 41.0 °F 71% 29.77 in 10.0 mi WSW 11.5 mph - N/A   Clear
11:12 PM 50.0 °F 41.0 °F 71% 29.78 in 10.0 mi WSW 11.5 mph 16.1 mph N/A   Clear
11:33 PM 50.0 °F 41.0 °F 71% 29.78 in 10.0 mi WSW 9.2 mph - N/A   Clear
11:53 PM 48.2 °F 41.0 °F 76% 29.80 in 10.0 mi SW 8.1 mph - N/A   Clear